sensor_id;sensor_type;location;lat;lon;timestamp;pressure;altitude;pressure_sealevel;temperature;humidity
79230;BME280;68663;49.122;17.544;2024-02-04T00:01:24;99737.59;;;24.81;45.31
79230;BME280;68663;49.122;17.544;2024-02-04T00:03:50;99729.94;;;24.82;45.04
79230;BME280;68663;49.122;17.544;2024-02-04T00:06:15;99733.19;;;24.80;45.16
79230;BME280;68663;49.122;17.544;2024-02-04T00:08:41;99733.22;;;24.76;45.17
79230;BME280;68663;49.122;17.544;2024-02-04T00:11:06;99719.53;;;24.75;45.23
79230;BME280;68663;49.122;17.544;2024-02-04T00:13:33;99719.53;;;24.75;45.09
79230;BME280;68663;49.122;17.544;2024-02-04T00:15:59;99709.44;;;24.74;45.08
79230;BME280;68663;49.122;17.544;2024-02-04T00:18:25;99699.34;;;24.73;45.24
79230;BME280;68663;49.122;17.544;2024-02-04T00:20:51;99704.22;;;24.72;44.98
79230;BME280;68663;49.122;17.544;2024-02-04T00:23:16;99708.22;;;24.75;45.13
79230;BME280;68663;49.122;17.544;2024-02-04T00:25:41;99710.59;;;24.76;45.10
79230;BME280;68663;49.122;17.544;2024-02-04T00:28:07;99707.34;;;24.78;45.16
79230;BME280;68663;49.122;17.544;2024-02-04T00:30:33;99713.81;;;24.78;44.76
79230;BME280;68663;49.122;17.544;2024-02-04T00:32:58;99712.59;;;24.80;44.97
79230;BME280;68663;49.122;17.544;2024-02-04T00:35:28;99710.56;;;24.80;45.19
79230;BME280;68663;49.122;17.544;2024-02-04T00:37:54;99714.56;;;24.83;44.91
79230;BME280;68663;49.122;17.544;2024-02-04T00:40:19;99716.16;;;24.84;44.93
79230;BME280;68663;49.122;17.544;2024-02-04T00:42:44;99718.56;;;24.85;45.01
79230;BME280;68663;49.122;17.544;2024-02-04T00:45:10;99718.56;;;24.85;45.05
79230;BME280;68663;49.122;17.544;2024-02-04T00:47:36;99716.09;;;24.87;44.64
79230;BME280;68663;49.122;17.544;2024-02-04T00:50:01;99712.06;;;24.88;44.68
79230;BME280;68663;49.122;17.544;2024-02-04T00:52:27;99705.97;;;24.90;44.63
79230;BME280;68663;49.122;17.544;2024-02-04T00:54:52;99703.94;;;24.90;44.96
79230;BME280;68663;49.122;17.544;2024-02-04T00:57:17;99703.50;;;24.92;44.51
79230;BME280;68663;49.122;17.544;2024-02-04T00:59:43;99708.75;;;24.93;44.68
79230;BME280;68663;49.122;17.544;2024-02-04T01:02:08;99710.34;;;24.94;44.43
79230;BME280;68663;49.122;17.544;2024-02-04T01:04:33;99706.28;;;24.95;44.33
79230;BME280;68663;49.122;17.544;2024-02-04T01:06:59;99708.38;;;24.91;44.67
79230;BME280;68663;49.122;17.544;2024-02-04T01:09:24;99703.94;;;24.90;44.46
79230;BME280;68663;49.122;17.544;2024-02-04T01:11:49;99694.72;;;24.86;44.43
79230;BME280;68663;49.122;17.544;2024-02-04T01:14:15;99691.94;;;24.83;44.44
79230;BME280;68663;49.122;17.544;2024-02-04T01:16:40;99690.00;;;24.76;44.38
79230;BME280;68663;49.122;17.544;2024-02-04T01:19:06;99681.09;;;24.77;44.51
79230;BME280;68663;49.122;17.544;2024-02-04T01:21:31;99681.09;;;24.77;44.44
79230;BME280;68663;49.122;17.544;2024-02-04T01:23:56;99683.13;;;24.77;44.75
79230;BME280;68663;49.122;17.544;2024-02-04T01:26:22;99680.31;;;24.77;44.81
79230;BME280;68663;49.122;17.544;2024-02-04T01:28:49;99684.34;;;24.76;44.40
79230;BME280;68663;49.122;17.544;2024-02-04T01:31:14;99693.66;;;24.76;44.60
79230;BME280;68663;49.122;17.544;2024-02-04T01:33:40;99689.22;;;24.75;44.48
79230;BME280;68663;49.122;17.544;2024-02-04T01:36:05;99692.03;;;24.75;44.66
79230;BME280;68663;49.122;17.544;2024-02-04T01:38:31;99693.66;;;24.76;44.80
79230;BME280;68663;49.122;17.544;2024-02-04T01:40:57;99680.31;;;24.77;44.35
79230;BME280;68663;49.122;17.544;2024-02-04T01:43:23;99663.34;;;24.77;44.87
79230;BME280;68663;49.122;17.544;2024-02-04T01:45:50;99657.69;;;24.77;44.68
79230;BME280;68663;49.122;17.544;2024-02-04T01:48:17;99673.41;;;24.78;44.45
79230;BME280;68663;49.122;17.544;2024-02-04T01:50:43;99675.03;;;24.79;44.29
79230;BME280;68663;49.122;17.544;2024-02-04T01:53:09;99688.72;;;24.81;44.16
79230;BME280;68663;49.122;17.544;2024-02-04T01:55:35;99676.63;;;24.80;44.37
79230;BME280;68663;49.122;17.544;2024-02-04T01:58:02;99669.31;;;24.83;44.16
79230;BME280;68663;49.122;17.544;2024-02-04T02:00:27;99671.72;;;24.84;44.39
79230;BME280;68663;49.122;17.544;2024-02-04T02:02:54;99678.97;;;24.85;44.06
79230;BME280;68663;49.122;17.544;2024-02-04T02:05:20;99675.41;;;24.81;44.59
79230;BME280;68663;49.122;17.544;2024-02-04T02:07:46;99675.81;;;24.80;44.50
79230;BME280;68663;49.122;17.544;2024-02-04T02:10:16;99682.34;;;24.76;44.33
79230;BME280;68663;49.122;17.544;2024-02-04T02:13:01;99675.88;;;24.76;44.43
79230;BME280;68663;49.122;17.544;2024-02-04T02:15:36;99658.91;;;24.76;44.25
79230;BME280;68663;49.122;17.544;2024-02-04T02:18:14;99664.19;;;24.74;44.20
79230;BME280;68663;49.122;17.544;2024-02-04T02:23:30;99671.06;;;24.73;44.50
79230;BME280;68663;49.122;17.544;2024-02-04T02:25:57;99669.47;;;24.72;44.30
79230;BME280;68663;49.122;17.544;2024-02-04T02:28:23;99658.09;;;24.75;44.45
79230;BME280;68663;49.122;17.544;2024-02-04T02:30:48;99644.41;;;24.74;44.32
79230;BME280;68663;49.122;17.544;2024-02-04T02:33:14;99642.38;;;24.74;44.08
79230;BME280;68663;49.122;17.544;2024-02-04T02:35:39;99635.50;;;24.75;44.13
79230;BME280;68663;49.122;17.544;2024-02-04T02:38:20;99626.22;;;24.75;44.27
79230;BME280;68663;49.122;17.544;2024-02-04T02:41:03;99632.22;;;24.77;44.12
79230;BME280;68663;49.122;17.544;2024-02-04T02:43:29;99632.59;;;24.79;44.22
79230;BME280;68663;49.122;17.544;2024-02-04T02:45:56;99635.44;;;24.79;44.08
79230;BME280;68663;49.122;17.544;2024-02-04T02:48:22;99639.06;;;24.80;44.37
79230;BME280;68663;49.122;17.544;2024-02-04T02:50:48;99628.53;;;24.80;44.20
79230;BME280;68663;49.122;17.544;2024-02-04T02:53:13;99634.56;;;24.82;44.24
79230;BME280;68663;49.122;17.544;2024-02-04T02:55:38;99628.50;;;24.84;44.08
79230;BME280;68663;49.122;17.544;2024-02-04T02:58:06;99623.63;;;24.84;44.29
79230;BME280;68663;49.122;17.544;2024-02-04T03:03:47;99632.97;;;24.81;44.19
79230;BME280;68663;49.122;17.544;2024-02-04T03:06:12;99628.97;;;24.78;43.95
79230;BME280;68663;49.122;17.544;2024-02-04T03:08:37;99630.63;;;24.76;43.94
79230;BME280;68663;49.122;17.544;2024-02-04T03:11:03;99636.28;;;24.76;43.99
79230;BME280;68663;49.122;17.544;2024-02-04T03:13:28;99649.19;;;24.77;44.12
79230;BME280;68663;49.122;17.544;2024-02-04T03:15:55;99650.06;;;24.74;44.07
79230;BME280;68663;49.122;17.544;2024-02-04T03:18:21;99646.00;;;24.75;44.03
79230;BME280;68663;49.122;17.544;2024-02-04T03:20:46;99649.25;;;24.73;43.75
79230;BME280;68663;49.122;17.544;2024-02-04T03:23:11;99650.84;;;24.74;43.74
79230;BME280;68663;49.122;17.544;2024-02-04T03:25:37;99646.00;;;24.75;44.22
79230;BME280;68663;49.122;17.544;2024-02-04T03:28:03;99638.31;;;24.75;43.95
79230;BME280;68663;49.122;17.544;2024-02-04T03:30:28;99631.88;;;24.75;43.85
79230;BME280;68663;49.122;17.544;2024-02-04T03:32:54;99631.44;;;24.76;43.90
79230;BME280;68663;49.122;17.544;2024-02-04T03:35:19;99630.63;;;24.76;43.87
79230;BME280;68663;49.122;17.544;2024-02-04T03:37:45;99630.19;;;24.77;43.80
79230;BME280;68663;49.122;17.544;2024-02-04T03:40:11;99635.84;;;24.77;44.23
79230;BME280;68663;49.122;17.544;2024-02-04T03:42:36;99643.13;;;24.78;44.10
79230;BME280;68663;49.122;17.544;2024-02-04T03:45:02;99643.50;;;24.81;44.11
79230;BME280;68663;49.122;17.544;2024-02-04T03:47:28;99650.75;;;24.82;43.71
79230;BME280;68663;49.122;17.544;2024-02-04T03:49:54;99646.69;;;24.83;43.94
79230;BME280;68663;49.122;17.544;2024-02-04T03:52:19;99642.63;;;24.84;44.12
79230;BME280;68663;49.122;17.544;2024-02-04T03:54:45;99646.25;;;24.84;44.00
79230;BME280;68663;49.122;17.544;2024-02-04T03:57:10;99651.91;;;24.84;43.70
79230;BME280;68663;49.122;17.544;2024-02-04T03:59:35;99651.06;;;24.87;43.67
79230;BME280;68663;49.122;17.544;2024-02-04T04:02:01;99632.84;;;24.88;43.67
79230;BME280;68663;49.122;17.544;2024-02-04T04:04:26;99632.13;;;24.84;43.90
79230;BME280;68663;49.122;17.544;2024-02-04T04:06:52;99629.72;;;24.83;43.64
79230;BME280;68663;49.122;17.544;2024-02-04T04:09:17;99623.69;;;24.81;43.46
79230;BME280;68663;49.122;17.544;2024-02-04T04:11:43;99620.50;;;24.78;43.53
79230;BME280;68663;49.122;17.544;2024-02-04T04:14:08;99614.03;;;24.78;43.56
79230;BME280;68663;49.122;17.544;2024-02-04T04:16:33;99605.63;;;24.74;43.91
79230;BME280;68663;49.122;17.544;2024-02-04T04:18:59;99603.22;;;24.73;43.86
79230;BME280;68663;49.122;17.544;2024-02-04T04:21:24;99615.31;;;24.73;43.69
79230;BME280;68663;49.122;17.544;2024-02-04T04:23:50;99622.16;;;24.76;43.92
79230;BME280;68663;49.122;17.544;2024-02-04T04:26:15;99619.69;;;24.78;43.86
79230;BME280;68663;49.122;17.544;2024-02-04T04:28:41;99631.81;;;24.78;43.64
79230;BME280;68663;49.122;17.544;2024-02-04T04:31:06;99619.25;;;24.80;43.85
79230;BME280;68663;49.122;17.544;2024-02-04T04:33:31;99627.31;;;24.81;43.84
79230;BME280;68663;49.122;17.544;2024-02-04T04:35:57;99611.94;;;24.82;43.63
79230;BME280;68663;49.122;17.544;2024-02-04T04:38:22;99616.38;;;24.83;43.62
79230;BME280;68663;49.122;17.544;2024-02-04T04:40:48;99615.56;;;24.83;43.63
79230;BME280;68663;49.122;17.544;2024-02-04T04:43:13;99617.59;;;24.82;43.37
79230;BME280;68663;49.122;17.544;2024-02-04T04:45:40;99612.81;;;24.79;43.49
79230;BME280;68663;49.122;17.544;2024-02-04T04:48:05;99628.22;;;24.74;43.49
79230;BME280;68663;49.122;17.544;2024-02-04T04:50:33;99634.69;;;24.75;43.83
79230;BME280;68663;49.122;17.544;2024-02-04T04:52:58;99634.31;;;24.73;43.64
79230;BME280;68663;49.122;17.544;2024-02-04T04:55:24;99637.94;;;24.73;43.73
79230;BME280;68663;49.122;17.544;2024-02-04T04:57:49;99648.81;;;24.75;44.03
79230;BME280;68663;49.122;17.544;2024-02-04T05:00:15;99643.53;;;24.77;43.98
79230;BME280;68663;49.122;17.544;2024-02-04T05:02:41;99640.28;;;24.78;43.34
79230;BME280;68663;49.122;17.544;2024-02-04T05:05:10;99634.19;;;24.80;43.78
79230;BME280;68663;49.122;17.544;2024-02-04T05:07:35;99641.47;;;24.81;43.66
79230;BME280;68663;49.122;17.544;2024-02-04T05:10:01;99640.22;;;24.82;43.50
79230;BME280;68663;49.122;17.544;2024-02-04T05:12:26;99634.56;;;24.82;43.62
79230;BME280;68663;49.122;17.544;2024-02-04T05:14:52;99641.81;;;24.83;43.39
79230;BME280;68663;49.122;17.544;2024-02-04T05:17:17;99633.72;;;24.85;43.76
79230;BME280;68663;49.122;17.544;2024-02-04T05:19:42;99632.91;;;24.85;43.33
79230;BME280;68663;49.122;17.544;2024-02-04T05:22:08;99633.28;;;24.87;43.58
79230;BME280;68663;49.122;17.544;2024-02-04T05:24:34;99636.91;;;24.87;43.49
79230;BME280;68663;49.122;17.544;2024-02-04T05:26:59;99652.28;;;24.86;43.04
79230;BME280;68663;49.122;17.544;2024-02-04T05:29:24;99645.88;;;24.82;43.47
79230;BME280;68663;49.122;17.544;2024-02-04T05:31:50;99650.78;;;24.78;43.42
79230;BME280;68663;49.122;17.544;2024-02-04T05:34:15;99652.41;;;24.79;43.36
79230;BME280;68663;49.122;17.544;2024-02-04T05:36:41;99650.78;;;24.78;43.67
79230;BME280;68663;49.122;17.544;2024-02-04T05:39:14;99654.06;;;24.76;43.58
79230;BME280;68663;49.122;17.544;2024-02-04T05:41:40;99653.69;;;24.74;43.64
79230;BME280;68663;49.122;17.544;2024-02-04T05:44:06;99658.91;;;24.76;43.70
79230;BME280;68663;49.122;17.544;2024-02-04T05:46:34;99656.44;;;24.78;43.57
79230;BME280;68663;49.122;17.544;2024-02-04T05:48:59;99670.97;;;24.80;43.32
79230;BME280;68663;49.122;17.544;2024-02-04T05:51:25;99654.78;;;24.81;43.54
79230;BME280;68663;49.122;17.544;2024-02-04T05:53:50;99658.00;;;24.83;43.43
79230;BME280;68663;49.122;17.544;2024-02-04T05:56:16;99664.44;;;24.83;43.50
79230;BME280;68663;49.122;17.544;2024-02-04T05:58:41;99662.44;;;24.84;43.42
79230;BME280;68663;49.122;17.544;2024-02-04T06:01:06;99661.63;;;24.83;43.68
79230;BME280;68663;49.122;17.544;2024-02-04T06:03:33;99670.09;;;24.83;43.38
79230;BME280;68663;49.122;17.544;2024-02-04T06:05:58;99666.06;;;24.84;43.32
79230;BME280;68663;49.122;17.544;2024-02-04T06:08:23;99667.66;;;24.85;43.27
79230;BME280;68663;49.122;17.544;2024-02-04T06:10:49;99681.38;;;24.87;43.44
79230;BME280;68663;49.122;17.544;2024-02-04T06:13:14;99664.41;;;24.87;43.64
79230;BME280;68663;49.122;17.544;2024-02-04T06:15:40;99678.13;;;24.88;43.45
79230;BME280;68663;49.122;17.544;2024-02-04T06:18:05;99678.13;;;24.88;43.59
79230;BME280;68663;49.122;17.544;2024-02-04T06:20:31;99681.75;;;24.89;43.42
79230;BME280;68663;49.122;17.544;2024-02-04T06:22:56;99691.03;;;24.89;43.67
79230;BME280;68663;49.122;17.544;2024-02-04T06:25:23;99697.09;;;24.88;43.32
79230;BME280;68663;49.122;17.544;2024-02-04T06:27:48;99698.38;;;24.83;43.60
79230;BME280;68663;49.122;17.544;2024-02-04T06:30:14;99690.34;;;24.82;43.23
79230;BME280;68663;49.122;17.544;2024-02-04T06:32:39;99670.97;;;24.80;43.63
79230;BME280;68663;49.122;17.544;2024-02-04T06:35:06;99664.94;;;24.78;43.79
79230;BME280;68663;49.122;17.544;2024-02-04T06:37:31;99667.41;;;24.76;43.59
79230;BME280;68663;49.122;17.544;2024-02-04T06:39:57;99681.53;;;24.76;43.47
79230;BME280;68663;49.122;17.544;2024-02-04T06:42:22;99675.06;;;24.75;43.71
79230;BME280;68663;49.122;17.544;2024-02-04T06:44:48;99657.31;;;24.75;43.68
79230;BME280;68663;49.122;17.544;2024-02-04T06:47:13;99670.22;;;24.76;43.58
79230;BME280;68663;49.122;17.544;2024-02-04T06:49:45;99672.63;;;24.77;43.50
79230;BME280;68663;49.122;17.544;2024-02-04T06:52:11;99673.41;;;24.78;43.53
79230;BME280;68663;49.122;17.544;2024-02-04T06:54:37;99679.06;;;24.78;43.37
79230;BME280;68663;49.122;17.544;2024-02-04T06:57:02;99674.22;;;24.78;43.82
79230;BME280;68663;49.122;17.544;2024-02-04T06:59:28;99663.72;;;24.79;43.77
79230;BME280;68663;49.122;17.544;2024-02-04T07:01:53;99667.34;;;24.80;43.58
79230;BME280;68663;49.122;17.544;2024-02-04T07:04:19;99682.28;;;24.80;43.47
79230;BME280;68663;49.122;17.544;2024-02-04T07:06:47;99685.47;;;24.82;43.26
79230;BME280;68663;49.122;17.544;2024-02-04T07:09:13;99674.16;;;24.82;43.37
79230;BME280;68663;49.122;17.544;2024-02-04T07:11:38;99687.06;;;24.83;43.52
79230;BME280;68663;49.122;17.544;2024-02-04T07:14:03;99683.88;;;24.81;43.69
79230;BME280;68663;49.122;17.544;2024-02-04T07:16:31;99679.06;;;24.78;43.48
79230;BME280;68663;49.122;17.544;2024-02-04T07:18:56;99679.50;;;24.76;43.41
79230;BME280;68663;49.122;17.544;2024-02-04T07:21:22;99686.38;;;24.75;43.58
79230;BME280;68663;49.122;17.544;2024-02-04T07:23:47;99683.56;;;24.75;43.40
79230;BME280;68663;49.122;17.544;2024-02-04T07:26:12;99678.34;;;24.74;43.43
79230;BME280;68663;49.122;17.544;2024-02-04T07:28:38;99677.53;;;24.73;43.68
79230;BME280;68663;49.122;17.544;2024-02-04T07:31:03;99665.38;;;24.76;43.91
79230;BME280;68663;49.122;17.544;2024-02-04T07:33:29;99668.13;;;24.80;43.99
79230;BME280;68663;49.122;17.544;2024-02-04T07:35:54;99665.25;;;24.84;47.26
79230;BME280;68663;49.122;17.544;2024-02-04T07:38:20;99671.34;;;24.82;46.39
79230;BME280;68663;49.122;17.544;2024-02-04T07:40:45;99663.72;;;24.79;45.60
79230;BME280;68663;49.122;17.544;2024-02-04T07:43:11;99665.38;;;24.76;45.47
79230;BME280;68663;49.122;17.544;2024-02-04T07:45:36;99649.63;;;24.75;45.29
79230;BME280;68663;49.122;17.544;2024-02-04T07:48:03;99646.00;;;24.75;44.91
79230;BME280;68663;49.122;17.544;2024-02-04T07:50:28;99644.78;;;24.76;45.08
79230;BME280;68663;49.122;17.544;2024-02-04T07:52:54;99645.16;;;24.78;44.77
79230;BME280;68663;49.122;17.544;2024-02-04T07:55:19;99634.50;;;24.86;44.65
79230;BME280;68663;49.122;17.544;2024-02-04T07:57:45;99648.16;;;24.91;44.74
79230;BME280;68663;49.122;17.544;2024-02-04T08:00:11;99644.59;;;24.87;44.83
79230;BME280;68663;49.122;17.544;2024-02-04T08:02:36;99652.78;;;24.81;44.71
79230;BME280;68663;49.122;17.544;2024-02-04T08:05:04;99675.41;;;24.81;44.25
79230;BME280;68663;49.122;17.544;2024-02-04T08:07:29;99651.66;;;24.75;44.29
79230;BME280;68663;49.122;17.544;2024-02-04T08:09:54;99640.94;;;24.36;40.81
79230;BME280;68663;49.122;17.544;2024-02-04T08:12:20;99639.75;;;23.99;36.99
79230;BME280;68663;49.122;17.544;2024-02-04T08:14:45;99654.13;;;24.12;38.00
79230;BME280;68663;49.122;17.544;2024-02-04T08:17:11;99676.16;;;24.28;37.60
79230;BME280;68663;49.122;17.544;2024-02-04T08:19:36;99665.19;;;24.33;37.23
79230;BME280;68663;49.122;17.544;2024-02-04T08:22:01;99658.69;;;24.36;37.45
79230;BME280;68663;49.122;17.544;2024-02-04T08:24:27;99671.53;;;24.41;38.17
79230;BME280;68663;49.122;17.544;2024-02-04T08:26:54;99682.00;;;24.44;38.51
79230;BME280;68663;49.122;17.544;2024-02-04T08:29:20;99669.41;;;24.49;38.75
79230;BME280;68663;49.122;17.544;2024-02-04T08:31:45;99674.59;;;24.54;38.99
79230;BME280;68663;49.122;17.544;2024-02-04T08:34:10;99682.59;;;24.59;38.87
79230;BME280;68663;49.122;17.544;2024-02-04T08:36:36;99693.84;;;24.62;39.25
79230;BME280;68663;49.122;17.544;2024-02-04T08:39:02;99692.19;;;24.65;39.10
79230;BME280;68663;49.122;17.544;2024-02-04T08:41:27;99687.72;;;24.67;39.40
79230;BME280;68663;49.122;17.544;2024-02-04T08:43:53;99676.34;;;24.71;39.28
79230;BME280;68663;49.122;17.544;2024-02-04T08:46:18;99679.13;;;24.74;39.44
79230;BME280;68663;49.122;17.544;2024-02-04T08:48:44;99683.94;;;24.77;39.61
79230;BME280;68663;49.122;17.544;2024-02-04T08:51:12;99682.28;;;24.80;39.78
79230;BME280;68663;49.122;17.544;2024-02-04T08:53:38;99674.22;;;24.78;39.70
79230;BME280;68663;49.122;17.544;2024-02-04T08:56:05;99678.34;;;24.74;40.17
79230;BME280;68663;49.122;17.544;2024-02-04T08:58:31;99683.63;;;24.72;39.95
79230;BME280;68663;49.122;17.544;2024-02-04T09:00:57;99685.22;;;24.73;40.08
79230;BME280;68663;49.122;17.544;2024-02-04T09:03:22;99669.47;;;24.72;40.41
79230;BME280;68663;49.122;17.544;2024-02-04T09:05:48;99663.81;;;24.72;40.41
79230;BME280;68663;49.122;17.544;2024-02-04T09:08:14;99658.16;;;24.72;40.65
79230;BME280;68663;49.122;17.544;2024-02-04T09:10:39;99661.78;;;24.72;41.06
79230;BME280;68663;49.122;17.544;2024-02-04T09:13:04;99646.78;;;24.75;41.36
79230;BME280;68663;49.122;17.544;2024-02-04T09:15:30;99653.63;;;24.78;41.64
79230;BME280;68663;49.122;17.544;2024-02-04T09:17:55;99665.31;;;24.80;41.62
79230;BME280;68663;49.122;17.544;2024-02-04T09:20:21;99662.47;;;24.80;42.00
79230;BME280;68663;49.122;17.544;2024-02-04T09:22:46;99658.00;;;24.83;42.10
79230;BME280;68663;49.122;17.544;2024-02-04T09:25:11;99661.19;;;24.85;42.09
79230;BME280;68663;49.122;17.544;2024-02-04T09:27:37;99653.50;;;24.85;42.38
79230;BME280;68663;49.122;17.544;2024-02-04T09:30:03;99661.13;;;24.88;42.60
79230;BME280;68663;49.122;17.544;2024-02-04T09:32:28;99656.28;;;24.89;42.67
79230;BME280;68663;49.122;17.544;2024-02-04T09:34:54;99652.22;;;24.90;42.71
79230;BME280;68663;49.122;17.544;2024-02-04T09:37:19;99656.22;;;24.92;43.04
79230;BME280;68663;49.122;17.544;2024-02-04T09:39:45;99659.06;;;24.92;43.09
79230;BME280;68663;49.122;17.544;2024-02-04T09:42:20;99655.06;;;24.90;43.45
79230;BME280;68663;49.122;17.544;2024-02-04T09:44:49;99653.50;;;24.85;43.21
79230;BME280;68663;49.122;17.544;2024-02-04T09:47:14;99660.03;;;24.82;43.43
79230;BME280;68663;49.122;17.544;2024-02-04T09:49:40;99651.53;;;24.82;43.54
79230;BME280;68663;49.122;17.544;2024-02-04T09:52:09;99645.88;;;24.82;43.15
79230;BME280;68663;49.122;17.544;2024-02-04T09:54:46;99642.25;;;24.82;43.10
79230;BME280;68663;49.122;17.544;2024-02-04T09:57:13;99648.72;;;24.82;43.31
79230;BME280;68663;49.122;17.544;2024-02-04T09:59:39;99643.44;;;24.84;43.16
79230;BME280;68663;49.122;17.544;2024-02-04T10:02:05;99640.97;;;24.86;43.23
79230;BME280;68663;49.122;17.544;2024-02-04T10:04:32;99634.09;;;24.87;42.79
79230;BME280;68663;49.122;17.544;2024-02-04T10:06:58;99629.59;;;24.90;42.93
79230;BME280;68663;49.122;17.544;2024-02-04T10:09:24;99627.56;;;24.90;42.90
79230;BME280;68663;49.122;17.544;2024-02-04T10:11:49;99623.16;;;24.89;43.11
79230;BME280;68663;49.122;17.544;2024-02-04T10:14:16;99625.13;;;24.92;43.00
79230;BME280;68663;49.122;17.544;2024-02-04T10:16:42;99629.53;;;24.93;43.11
79230;BME280;68663;49.122;17.544;2024-02-04T10:19:07;99622.28;;;24.92;43.08
79230;BME280;68663;49.122;17.544;2024-02-04T10:21:33;99608.50;;;24.94;43.21
79230;BME280;68663;49.122;17.544;2024-02-04T10:23:58;99613.00;;;24.92;43.33
79230;BME280;68663;49.122;17.544;2024-02-04T10:26:28;99619.09;;;24.90;43.25
79230;BME280;68663;49.122;17.544;2024-02-04T10:28:57;99622.53;;;24.78;43.53
79230;BME280;68663;49.122;17.544;2024-02-04T10:31:23;99626.13;;;24.55;40.57
79230;BME280;68663;49.122;17.544;2024-02-04T10:33:49;99617.22;;;24.30;38.19
79230;BME280;68663;49.122;17.544;2024-02-04T10:36:15;99604.06;;;24.12;36.79
79230;BME280;68663;49.122;17.544;2024-02-04T10:38:40;99602.00;;;24.17;37.43
79230;BME280;68663;49.122;17.544;2024-02-04T10:41:06;99593.31;;;24.34;37.82
79230;BME280;68663;49.122;17.544;2024-02-04T10:43:33;99591.63;;;24.40;37.40
79230;BME280;68663;49.122;17.544;2024-02-04T10:48:37;99591.50;;;24.48;38.23
79230;BME280;68663;49.122;17.544;2024-02-04T10:51:14;99581.75;;;24.52;38.93
79230;BME280;68663;49.122;17.544;2024-02-04T10:53:41;99568.34;;;24.56;39.05
79230;BME280;68663;49.122;17.544;2024-02-04T10:56:13;99564.22;;;24.61;39.20
79230;BME280;68663;49.122;17.544;2024-02-04T10:58:40;99575.06;;;24.66;39.42
79230;BME280;68663;49.122;17.544;2024-02-04T11:01:05;99569.34;;;24.69;39.55
79230;BME280;68663;49.122;17.544;2024-02-04T11:03:32;99577.41;;;24.71;39.79
79230;BME280;68663;49.122;17.544;2024-02-04T11:05:58;99562.03;;;24.72;40.02
79230;BME280;68663;49.122;17.544;2024-02-04T11:08:25;99560.38;;;24.74;40.01
79230;BME280;68663;49.122;17.544;2024-02-04T11:10:50;99553.06;;;24.77;40.12
79230;BME280;68663;49.122;17.544;2024-02-04T11:13:18;99553.91;;;24.74;40.13
79230;BME280;68663;49.122;17.544;2024-02-04T11:15:46;99551.53;;;24.72;40.78
79230;BME280;68663;49.122;17.544;2024-02-04T11:21:41;99533.75;;;24.72;41.54
79230;BME280;68663;49.122;17.544;2024-02-04T11:26:54;99522.44;;;24.72;41.54
79230;BME280;68663;49.122;17.544;2024-02-04T11:29:20;99517.97;;;24.74;41.50
79230;BME280;68663;49.122;17.544;2024-02-04T11:31:46;99520.34;;;24.76;41.65
79230;BME280;68663;49.122;17.544;2024-02-04T11:34:11;99517.09;;;24.77;41.58
79230;BME280;68663;49.122;17.544;2024-02-04T11:36:38;99531.16;;;24.81;41.43
79230;BME280;68663;49.122;17.544;2024-02-04T11:39:14;99527.91;;;24.83;41.50
79230;BME280;68663;49.122;17.544;2024-02-04T11:41:47;99535.97;;;24.84;41.63
79230;BME280;68663;49.122;17.544;2024-02-04T11:44:19;99529.06;;;24.85;41.73
79230;BME280;68663;49.122;17.544;2024-02-04T11:46:48;99533.56;;;24.83;41.67
79230;BME280;68663;49.122;17.544;2024-02-04T11:49:18;99527.59;;;24.77;42.18
79230;BME280;68663;49.122;17.544;2024-02-04T11:51:50;99533.25;;;24.77;41.87
79230;BME280;68663;49.122;17.544;2024-02-04T11:54:16;99530.44;;;24.77;42.12
79230;BME280;68663;49.122;17.544;2024-02-04T11:56:44;99520.34;;;24.76;42.66
79230;BME280;68663;49.122;17.544;2024-02-04T11:59:11;99504.19;;;24.76;42.98
79230;BME280;68663;49.122;17.544;2024-02-04T12:01:37;99502.53;;;24.79;43.90
79230;BME280;68663;49.122;17.544;2024-02-04T12:04:13;99500.78;;;24.85;44.63
79230;BME280;68663;49.122;17.544;2024-02-04T12:06:42;99489.34;;;24.92;48.65
79230;BME280;68663;49.122;17.544;2024-02-04T12:09:09;99490.50;;;24.95;49.73
79230;BME280;68663;49.122;17.544;2024-02-04T12:11:39;99484.38;;;25.00;53.37
79230;BME280;68663;49.122;17.544;2024-02-04T12:14:05;99479.88;;;25.02;53.55
79230;BME280;68663;49.122;17.544;2024-02-04T12:16:32;99476.56;;;25.07;55.20
79230;BME280;68663;49.122;17.544;2024-02-04T12:18:59;99465.25;;;25.07;53.63
79230;BME280;68663;49.122;17.544;2024-02-04T12:21:25;99460.88;;;25.03;51.81
79230;BME280;68663;49.122;17.544;2024-02-04T12:23:51;99446.00;;;24.99;48.93
79230;BME280;68663;49.122;17.544;2024-02-04T12:26:17;99449.28;;;24.97;47.14
79230;BME280;68663;49.122;17.544;2024-02-04T12:28:42;99434.75;;;24.95;46.02
79230;BME280;68663;49.122;17.544;2024-02-04T12:33:55;99425.03;;;24.96;45.38
79230;BME280;68663;49.122;17.544;2024-02-04T12:36:30;99421.00;;;24.97;44.75
79230;BME280;68663;49.122;17.544;2024-02-04T12:38:57;99424.19;;;24.99;44.58
79230;BME280;68663;49.122;17.544;2024-02-04T12:41:23;99415.19;;;25.04;46.82
79230;BME280;68663;49.122;17.544;2024-02-04T12:43:53;99416.63;;;25.13;49.89
79230;BME280;68663;49.122;17.544;2024-02-04T12:46:20;99417.75;;;25.19;50.78
79230;BME280;68663;49.122;17.544;2024-02-04T12:48:51;99422.91;;;25.24;50.91
79230;BME280;68663;49.122;17.544;2024-02-04T12:54:09;99418.03;;;25.24;51.07
79230;BME280;68663;49.122;17.544;2024-02-04T12:56:53;99408.75;;;25.24;50.99
79230;BME280;68663;49.122;17.544;2024-02-04T12:59:30;99410.78;;;25.23;49.58
79230;BME280;68663;49.122;17.544;2024-02-04T13:01:58;99410.41;;;25.21;50.72
79230;BME280;68663;49.122;17.544;2024-02-04T13:04:24;99406.00;;;25.20;50.13
79230;BME280;68663;49.122;17.544;2024-02-04T13:06:50;99422.59;;;25.18;48.80